sensor_id;sensor_type;location;lat;lon;timestamp;P1;durP1;ratioP1;P2;durP2;ratioP2
38487;SDS011;57384;51.986;4.458;2023-07-13T00:01:12;4.82;;;3.30;;
38487;SDS011;57384;51.986;4.458;2023-07-13T00:07:16;8.88;;;4.72;;
38487;SDS011;57384;51.986;4.458;2023-07-13T00:17:12;3.80;;;3.60;;
38487;SDS011;57384;51.986;4.458;2023-07-13T00:20:00;3.22;;;2.88;;
38487;SDS011;57384;51.986;4.458;2023-07-13T00:22:55;2.72;;;2.63;;
38487;SDS011;57384;51.986;4.458;2023-07-13T00:26:03;5.38;;;2.97;;
38487;SDS011;57384;51.986;4.458;2023-07-13T00:29:30;4.03;;;3.70;;
38487;SDS011;57384;51.986;4.458;2023-07-13T00:32:41;3.90;;;3.25;;
38487;SDS011;57384;51.986;4.458;2023-07-13T00:35:37;3.20;;;3.10;;
38487;SDS011;57384;51.986;4.458;2023-07-13T00:48:07;3.00;;;2.90;;
38487;SDS011;57384;51.986;4.458;2023-07-13T00:54:19;2.47;;;2.35;;
38487;SDS011;57384;51.986;4.458;2023-07-13T00:57:08;2.80;;;2.70;;
38487;SDS011;57384;51.986;4.458;2023-07-13T01:00:15;2.92;;;2.75;;
38487;SDS011;57384;51.986;4.458;2023-07-13T01:03:13;3.63;;;3.40;;
38487;SDS011;57384;51.986;4.458;2023-07-13T01:06:09;2.70;;;2.60;;
38487;SDS011;57384;51.986;4.458;2023-07-13T01:09:07;2.92;;;2.83;;
38487;SDS011;57384;51.986;4.458;2023-07-13T01:12:35;2.95;;;2.85;;
38487;SDS011;57384;51.986;4.458;2023-07-13T01:18:35;3.92;;;3.63;;
38487;SDS011;57384;51.986;4.458;2023-07-13T01:21:32;2.50;;;2.40;;
38487;SDS011;57384;51.986;4.458;2023-07-13T01:24:46;3.17;;;3.08;;
38487;SDS011;57384;51.986;4.458;2023-07-13T01:27:37;2.40;;;2.30;;
38487;SDS011;57384;51.986;4.458;2023-07-13T01:30:31;3.35;;;3.25;;
38487;SDS011;57384;51.986;4.458;2023-07-13T01:36:26;7.13;;;3.30;;
38487;SDS011;57384;51.986;4.458;2023-07-13T01:39:25;3.00;;;2.90;;
38487;SDS011;57384;51.986;4.458;2023-07-13T01:42:16;3.60;;;3.40;;
38487;SDS011;57384;51.986;4.458;2023-07-13T01:45:21;2.92;;;2.83;;
38487;SDS011;57384;51.986;4.458;2023-07-13T01:48:23;3.60;;;3.40;;
38487;SDS011;57384;51.986;4.458;2023-07-13T01:54:29;2.83;;;2.72;;
38487;SDS011;57384;51.986;4.458;2023-07-13T01:57:22;2.83;;;2.72;;
38487;SDS011;57384;51.986;4.458;2023-07-13T02:00:15;2.97;;;2.88;;
38487;SDS011;57384;51.986;4.458;2023-07-13T02:03:03;2.78;;;2.67;;
38487;SDS011;57384;51.986;4.458;2023-07-13T02:05:54;3.17;;;3.03;;
38487;SDS011;57384;51.986;4.458;2023-07-13T02:08:41;2.80;;;2.70;;
38487;SDS011;57384;51.986;4.458;2023-07-13T02:11:31;3.03;;;2.92;;
38487;SDS011;57384;51.986;4.458;2023-07-13T02:14:44;2.78;;;2.67;;
38487;SDS011;57384;51.986;4.458;2023-07-13T02:17:31;6.55;;;4.32;;
38487;SDS011;57384;51.986;4.458;2023-07-13T02:20:26;3.05;;;2.95;;
38487;SDS011;57384;51.986;4.458;2023-07-13T02:23:16;3.72;;;3.53;;
38487;SDS011;57384;51.986;4.458;2023-07-13T02:26:09;2.88;;;2.78;;
38487;SDS011;57384;51.986;4.458;2023-07-13T02:28:57;3.35;;;3.22;;
38487;SDS011;57384;51.986;4.458;2023-07-13T02:32:02;3.55;;;3.45;;
38487;SDS011;57384;51.986;4.458;2023-07-13T02:38:06;4.10;;;4.00;;
38487;SDS011;57384;51.986;4.458;2023-07-13T02:41:02;3.97;;;3.88;;
38487;SDS011;57384;51.986;4.458;2023-07-13T02:44:28;5.22;;;4.95;;
38487;SDS011;57384;51.986;4.458;2023-07-13T02:47:32;5.68;;;5.18;;
38487;SDS011;57384;51.986;4.458;2023-07-13T02:50:52;5.57;;;5.38;;
38487;SDS011;57384;51.986;4.458;2023-07-13T02:53:56;6.13;;;5.82;;
38487;SDS011;57384;51.986;4.458;2023-07-13T02:56:57;5.00;;;4.82;;
38487;SDS011;57384;51.986;4.458;2023-07-13T02:59:57;4.85;;;4.60;;
38487;SDS011;57384;51.986;4.458;2023-07-13T03:02:51;5.60;;;5.35;;
38487;SDS011;57384;51.986;4.458;2023-07-13T03:05:40;5.22;;;5.03;;
38487;SDS011;57384;51.986;4.458;2023-07-13T03:08:41;5.78;;;5.57;;
38487;SDS011;57384;51.986;4.458;2023-07-13T03:14:23;6.00;;;5.80;;
38487;SDS011;57384;51.986;4.458;2023-07-13T03:17:13;6.07;;;5.88;;
38487;SDS011;57384;51.986;4.458;2023-07-13T03:20:18;6.20;;;6.00;;
38487;SDS011;57384;51.986;4.458;2023-07-13T03:23:12;7.63;;;7.28;;
38487;SDS011;57384;51.986;4.458;2023-07-13T03:26:09;6.47;;;6.28;;
38487;SDS011;57384;51.986;4.458;2023-07-13T03:29:11;4.78;;;4.68;;
38487;SDS011;57384;51.986;4.458;2023-07-13T03:35:01;5.80;;;5.60;;
38487;SDS011;57384;51.986;4.458;2023-07-13T03:37:48;5.90;;;5.70;;
38487;SDS011;57384;51.986;4.458;2023-07-13T03:40:35;7.20;;;6.57;;
38487;SDS011;57384;51.986;4.458;2023-07-13T03:43:20;6.07;;;5.88;;
38487;SDS011;57384;51.986;4.458;2023-07-13T03:46:33;8.93;;;8.37;;
38487;SDS011;57384;51.986;4.458;2023-07-13T03:49:40;6.68;;;6.47;;
38487;SDS011;57384;51.986;4.458;2023-07-13T03:52:50;6.18;;;5.97;;
38487;SDS011;57384;51.986;4.458;2023-07-13T03:55:40;6.60;;;6.40;;
38487;SDS011;57384;51.986;4.458;2023-07-13T03:58:36;8.95;;;7.95;;
38487;SDS011;57384;51.986;4.458;2023-07-13T04:04:56;7.20;;;6.90;;
38487;SDS011;57384;51.986;4.458;2023-07-13T04:11:11;6.43;;;6.22;;
38487;SDS011;57384;51.986;4.458;2023-07-13T04:14:03;6.05;;;5.75;;
38487;SDS011;57384;51.986;4.458;2023-07-13T04:19:55;6.18;;;5.97;;
38487;SDS011;57384;51.986;4.458;2023-07-13T04:22:39;6.15;;;5.95;;
38487;SDS011;57384;51.986;4.458;2023-07-13T04:25:53;6.20;;;6.00;;
38487;SDS011;57384;51.986;4.458;2023-07-13T04:29:00;6.68;;;6.47;;
38487;SDS011;57384;51.986;4.458;2023-07-13T04:32:23;7.25;;;7.05;;
38487;SDS011;57384;51.986;4.458;2023-07-13T04:35:07;9.38;;;8.95;;
38487;SDS011;57384;51.986;4.458;2023-07-13T04:38:00;7.65;;;7.45;;
38487;SDS011;57384;51.986;4.458;2023-07-13T04:40:59;9.02;;;6.53;;
38487;SDS011;57384;51.986;4.458;2023-07-13T04:47:06;8.27;;;7.97;;
38487;SDS011;57384;51.986;4.458;2023-07-13T04:50:14;7.20;;;7.00;;
38487;SDS011;57384;51.986;4.458;2023-07-13T04:53:06;6.45;;;6.25;;
38487;SDS011;57384;51.986;4.458;2023-07-13T04:55:56;7.68;;;7.47;;
38487;SDS011;57384;51.986;4.458;2023-07-13T05:05:30;6.70;;;6.50;;
38487;SDS011;57384;51.986;4.458;2023-07-13T05:08:39;7.53;;;7.07;;
38487;SDS011;57384;51.986;4.458;2023-07-13T05:14:55;6.28;;;6.07;;
38487;SDS011;57384;51.986;4.458;2023-07-13T05:17:57;5.63;;;5.43;;
38487;SDS011;57384;51.986;4.458;2023-07-13T05:21:35;6.07;;;5.88;;
38487;SDS011;57384;51.986;4.458;2023-07-13T05:24:30;7.28;;;7.07;;
38487;SDS011;57384;51.986;4.458;2023-07-13T05:44:40;6.70;;;6.40;;
38487;SDS011;57384;51.986;4.458;2023-07-13T05:47:30;5.85;;;5.65;;
38487;SDS011;57384;51.986;4.458;2023-07-13T05:50:22;5.60;;;5.40;;
38487;SDS011;57384;51.986;4.458;2023-07-13T05:53:07;5.03;;;4.82;;
38487;SDS011;57384;51.986;4.458;2023-07-13T05:55:51;6.00;;;5.80;;
38487;SDS011;57384;51.986;4.458;2023-07-13T05:58:40;6.00;;;5.70;;
38487;SDS011;57384;51.986;4.458;2023-07-13T06:01:24;6.07;;;5.88;;
38487;SDS011;57384;51.986;4.458;2023-07-13T06:04:10;5.85;;;5.65;;
38487;SDS011;57384;51.986;4.458;2023-07-13T06:06:54;5.93;;;5.72;;
38487;SDS011;57384;51.986;4.458;2023-07-13T06:09:39;5.57;;;5.38;;
38487;SDS011;57384;51.986;4.458;2023-07-13T06:12:26;5.55;;;5.35;;
38487;SDS011;57384;51.986;4.458;2023-07-13T06:15:11;5.53;;;5.32;;
38487;SDS011;57384;51.986;4.458;2023-07-13T06:17:55;6.57;;;6.05;;
38487;SDS011;57384;51.986;4.458;2023-07-13T06:20:40;5.25;;;5.05;;
38487;SDS011;57384;51.986;4.458;2023-07-13T06:23:24;5.28;;;5.07;;
38487;SDS011;57384;51.986;4.458;2023-07-13T06:26:10;5.45;;;5.25;;
38487;SDS011;57384;51.986;4.458;2023-07-13T06:28:54;6.40;;;6.00;;
38487;SDS011;57384;51.986;4.458;2023-07-13T06:31:39;5.70;;;5.50;;
38487;SDS011;57384;51.986;4.458;2023-07-13T06:34:23;5.47;;;5.28;;
38487;SDS011;57384;51.986;4.458;2023-07-13T06:37:08;6.63;;;6.32;;
38487;SDS011;57384;51.986;4.458;2023-07-13T06:39:53;6.38;;;6.18;;
38487;SDS011;57384;51.986;4.458;2023-07-13T06:42:37;5.72;;;5.53;;
38487;SDS011;57384;51.986;4.458;2023-07-13T06:45:21;6.15;;;5.95;;
38487;SDS011;57384;51.986;4.458;2023-07-13T06:48:08;5.85;;;5.65;;
38487;SDS011;57384;51.986;4.458;2023-07-13T06:50:55;5.97;;;5.78;;
38487;SDS011;57384;51.986;4.458;2023-07-13T06:53:40;5.53;;;5.32;;
38487;SDS011;57384;51.986;4.458;2023-07-13T06:56:24;5.55;;;5.35;;
38487;SDS011;57384;51.986;4.458;2023-07-13T07:01:56;5.07;;;4.88;;
38487;SDS011;57384;51.986;4.458;2023-07-13T07:04:43;5.78;;;5.57;;
38487;SDS011;57384;51.986;4.458;2023-07-13T07:07:28;6.03;;;5.82;;
38487;SDS011;57384;51.986;4.458;2023-07-13T07:10:16;6.03;;;5.82;;
38487;SDS011;57384;51.986;4.458;2023-07-13T07:13:00;6.68;;;6.38;;
38487;SDS011;57384;51.986;4.458;2023-07-13T07:15:45;6.10;;;5.90;;
38487;SDS011;57384;51.986;4.458;2023-07-13T07:18:30;6.15;;;5.95;;
38487;SDS011;57384;51.986;4.458;2023-07-13T07:21:16;17.42;;;6.45;;
38487;SDS011;57384;51.986;4.458;2023-07-13T07:24:00;5.45;;;5.25;;
38487;SDS011;57384;51.986;4.458;2023-07-13T07:26:48;5.07;;;4.88;;
38487;SDS011;57384;51.986;4.458;2023-07-13T07:32:30;5.85;;;5.40;;
38487;SDS011;57384;51.986;4.458;2023-07-13T07:35:18;5.50;;;5.28;;
38487;SDS011;57384;51.986;4.458;2023-07-13T07:38:06;4.32;;;4.22;;
38487;SDS011;57384;51.986;4.458;2023-07-13T07:40:55;4.88;;;4.68;;
38487;SDS011;57384;51.986;4.458;2023-07-13T07:43:50;4.90;;;4.60;;
38487;SDS011;57384;51.986;4.458;2023-07-13T07:46:36;6.20;;;6.00;;
38487;SDS011;57384;51.986;4.458;2023-07-13T07:49:24;7.07;;;6.78;;
38487;SDS011;57384;51.986;4.458;2023-07-13T07:52:08;6.30;;;6.10;;
38487;SDS011;57384;51.986;4.458;2023-07-13T07:54:52;6.65;;;6.45;;
38487;SDS011;57384;51.986;4.458;2023-07-13T07:57:37;9.93;;;9.15;;
38487;SDS011;57384;51.986;4.458;2023-07-13T08:00:22;7.70;;;7.35;;
38487;SDS011;57384;51.986;4.458;2023-07-13T08:03:06;6.57;;;6.38;;
38487;SDS011;57384;51.986;4.458;2023-07-13T08:05:54;6.82;;;6.63;;
38487;SDS011;57384;51.986;4.458;2023-07-13T08:08:43;7.90;;;7.60;;
38487;SDS011;57384;51.986;4.458;2023-07-13T08:11:36;8.38;;;7.93;;
38487;SDS011;57384;51.986;4.458;2023-07-13T08:14:23;7.85;;;7.55;;
38487;SDS011;57384;51.986;4.458;2023-07-13T08:17:16;7.40;;;7.20;;
38487;SDS011;57384;51.986;4.458;2023-07-13T08:20:04;7.35;;;6.95;;
38487;SDS011;57384;51.986;4.458;2023-07-13T08:22:49;8.45;;;8.05;;
38487;SDS011;57384;51.986;4.458;2023-07-13T08:25:33;9.50;;;9.20;;
38487;SDS011;57384;51.986;4.458;2023-07-13T08:28:20;9.23;;;8.93;;
38487;SDS011;57384;51.986;4.458;2023-07-13T08:31:08;11.63;;;11.27;;
38487;SDS011;57384;51.986;4.458;2023-07-13T08:34:05;11.68;;;11.32;;
38487;SDS011;57384;51.986;4.458;2023-07-13T08:36:49;11.63;;;11.25;;
38487;SDS011;57384;51.986;4.458;2023-07-13T08:39:33;12.18;;;11.77;;
38487;SDS011;57384;51.986;4.458;2023-07-13T08:45:17;10.60;;;10.10;;
38487;SDS011;57384;51.986;4.458;2023-07-13T08:54:41;8.80;;;8.50;;
38487;SDS011;57384;51.986;4.458;2023-07-13T08:57:33;8.50;;;8.27;;
38487;SDS011;57384;51.986;4.458;2023-07-13T09:00:40;7.63;;;7.43;;
38487;SDS011;57384;51.986;4.458;2023-07-13T09:03:38;7.22;;;7.03;;
38487;SDS011;57384;51.986;4.458;2023-07-13T09:06:33;8.38;;;8.13;;
38487;SDS011;57384;51.986;4.458;2023-07-13T09:16:02;8.57;;;8.27;;
38487;SDS011;57384;51.986;4.458;2023-07-13T09:18:48;9.32;;;9.02;;
38487;SDS011;57384;51.986;4.458;2023-07-13T09:24:57;9.13;;;8.85;;
38487;SDS011;57384;51.986;4.458;2023-07-13T09:28:21;9.75;;;9.45;;
38487;SDS011;57384;51.986;4.458;2023-07-13T09:34:09;9.00;;;8.70;;
38487;SDS011;57384;51.986;4.458;2023-07-13T09:37:12;8.18;;;7.97;;
38487;SDS011;57384;51.986;4.458;2023-07-13T09:40:11;8.02;;;7.72;;
38487;SDS011;57384;51.986;4.458;2023-07-13T09:43:09;6.93;;;6.72;;
38487;SDS011;57384;51.986;4.458;2023-07-13T09:49:14;7.15;;;6.85;;
38487;SDS011;57384;51.986;4.458;2023-07-13T09:52:09;7.97;;;7.78;;
38487;SDS011;57384;51.986;4.458;2023-07-13T09:55:12;8.43;;;7.93;;
38487;SDS011;57384;51.986;4.458;2023-07-13T09:58:29;6.57;;;6.38;;
38487;SDS011;57384;51.986;4.458;2023-07-13T10:01:36;7.18;;;6.97;;
38487;SDS011;57384;51.986;4.458;2023-07-13T10:05:02;8.05;;;7.00;;
38487;SDS011;57384;51.986;4.458;2023-07-13T10:11:34;8.00;;;7.80;;
38487;SDS011;57384;51.986;4.458;2023-07-13T10:14:20;7.25;;;7.05;;
38487;SDS011;57384;51.986;4.458;2023-07-13T10:20:33;9.27;;;8.90;;
38487;SDS011;57384;51.986;4.458;2023-07-13T10:23:34;9.40;;;9.10;;
38487;SDS011;57384;51.986;4.458;2023-07-13T10:26:43;7.10;;;6.90;;
38487;SDS011;57384;51.986;4.458;2023-07-13T10:29:54;7.13;;;6.93;;
38487;SDS011;57384;51.986;4.458;2023-07-13T10:33:11;6.55;;;6.35;;
38487;SDS011;57384;51.986;4.458;2023-07-13T10:39:43;5.43;;;5.22;;
38487;SDS011;57384;51.986;4.458;2023-07-13T10:42:44;5.40;;;5.20;;
38487;SDS011;57384;51.986;4.458;2023-07-13T10:45:45;5.60;;;5.40;;
38487;SDS011;57384;51.986;4.458;2023-07-13T10:48:51;4.75;;;4.60;;
38487;SDS011;57384;51.986;4.458;2023-07-13T10:51:43;5.03;;;4.82;;
38487;SDS011;57384;51.986;4.458;2023-07-13T10:54:44;5.30;;;5.10;;
38487;SDS011;57384;51.986;4.458;2023-07-13T11:05:14;4.57;;;4.38;;
38487;SDS011;57384;51.986;4.458;2023-07-13T11:11:49;4.05;;;3.95;;
38487;SDS011;57384;51.986;4.458;2023-07-13T11:15:15;4.80;;;4.63;;
38487;SDS011;57384;51.986;4.458;2023-07-13T11:18:22;4.72;;;4.63;;
38487;SDS011;57384;51.986;4.458;2023-07-13T11:24:27;4.55;;;4.43;;
38487;SDS011;57384;51.986;4.458;2023-07-13T11:34:16;3.90;;;3.80;;
38487;SDS011;57384;51.986;4.458;2023-07-13T11:37:13;4.05;;;3.95;;
38487;SDS011;57384;51.986;4.458;2023-07-13T11:40:03;5.22;;;5.00;;
38487;SDS011;57384;51.986;4.458;2023-07-13T11:43:05;3.90;;;3.80;;
38487;SDS011;57384;51.986;4.458;2023-07-13T11:49:24;5.05;;;4.88;;
38487;SDS011;57384;51.986;4.458;2023-07-13T11:58:56;5.30;;;5.10;;
38487;SDS011;57384;51.986;4.458;2023-07-13T12:05:05;5.10;;;4.90;;
38487;SDS011;57384;51.986;4.458;2023-07-13T12:07:59;5.63;;;5.43;;
38487;SDS011;57384;51.986;4.458;2023-07-13T12:14:38;5.82;;;5.63;;
38487;SDS011;57384;51.986;4.458;2023-07-13T12:20:45;6.43;;;6.22;;
38487;SDS011;57384;51.986;4.458;2023-07-13T12:27:04;6.75;;;6.55;;
38487;SDS011;57384;51.986;4.458;2023-07-13T12:29:58;6.40;;;6.20;;
38487;SDS011;57384;51.986;4.458;2023-07-13T12:32:54;4.85;;;4.75;;
38487;SDS011;57384;51.986;4.458;2023-07-13T12:38:35;4.20;;;4.10;;
38487;SDS011;57384;51.986;4.458;2023-07-13T12:41:19;4.32;;;4.22;;
38487;SDS011;57384;51.986;4.458;2023-07-13T12:44:03;4.18;;;4.03;;
38487;SDS011;57384;51.986;4.458;2023-07-13T12:46:53;4.38;;;4.28;;
38487;SDS011;57384;51.986;4.458;2023-07-13T12:49:41;3.78;;;3.67;;
38487;SDS011;57384;51.986;4.458;2023-07-13T12:52:31;4.70;;;4.38;;
38487;SDS011;57384;51.986;4.458;2023-07-13T12:55:17;4.28;;;4.18;;
38487;SDS011;57384;51.986;4.458;2023-07-13T12:58:06;3.92;;;3.83;;
38487;SDS011;57384;51.986;4.458;2023-07-13T13:00:58;3.85;;;3.75;;
38487;SDS011;57384;51.986;4.458;2023-07-13T13:03:45;4.30;;;4.20;;
38487;SDS011;57384;51.986;4.458;2023-07-13T13:06:32;4.75;;;4.55;;
38487;SDS011;57384;51.986;4.458;2023-07-13T13:09:17;3.95;;;3.85;;
38487;SDS011;57384;51.986;4.458;2023-07-13T13:12:02;4.50;;;4.40;;
38487;SDS011;57384;51.986;4.458;2023-07-13T13:14:46;3.72;;;3.63;;
38487;SDS011;57384;51.986;4.458;2023-07-13T13:17:30;3.58;;;3.47;;
38487;SDS011;57384;51.986;4.458;2023-07-13T13:20:15;3.17;;;3.08;;
38487;SDS011;57384;51.986;4.458;2023-07-13T13:23:01;3.65;;;3.55;;
38487;SDS011;57384;51.986;4.458;2023-07-13T13:25:46;3.35;;;3.25;;
38487;SDS011;57384;51.986;4.458;2023-07-13T13:28:32;3.35;;;3.25;;
38487;SDS011;57384;51.986;4.458;2023-07-13T13:31:16;3.50;;;3.40;;
38487;SDS011;57384;51.986;4.458;2023-07-13T13:34:00;4.65;;;4.32;;
38487;SDS011;57384;51.986;4.458;2023-07-13T13:36:44;3.13;;;3.03;;
38487;SDS011;57384;51.986;4.458;2023-07-13T13:42:18;3.03;;;2.92;;
38487;SDS011;57384;51.986;4.458;2023-07-13T13:45:02;3.47;;;3.38;;
38487;SDS011;57384;51.986;4.458;2023-07-13T13:47:47;3.27;;;3.17;;
38487;SDS011;57384;51.986;4.458;2023-07-13T13:50:31;3.38;;;3.28;;
38487;SDS011;57384;51.986;4.458;2023-07-13T13:53:15;3.20;;;3.10;;
38487;SDS011;57384;51.986;4.458;2023-07-13T13:55:59;3.00;;;2.90;;
38487;SDS011;57384;51.986;4.458;2023-07-13T13:58:43;3.85;;;3.70;;
38487;SDS011;57384;51.986;4.458;2023-07-13T14:01:28;3.28;;;3.17;;
38487;SDS011;57384;51.986;4.458;2023-07-13T14:04:16;3.42;;;3.33;;
38487;SDS011;57384;51.986;4.458;2023-07-13T14:07:02;3.10;;;3.00;;
38487;SDS011;57384;51.986;4.458;2023-07-13T14:09:46;2.90;;;2.80;;
38487;SDS011;57384;51.986;4.458;2023-07-13T14:12:30;3.53;;;3.42;;
38487;SDS011;57384;51.986;4.458;2023-07-13T14:15:22;3.60;;;3.50;;
38487;SDS011;57384;51.986;4.458;2023-07-13T14:18:09;4.28;;;4.13;;
38487;SDS011;57384;51.986;4.458;2023-07-13T14:20:53;3.30;;;3.20;;
38487;SDS011;57384;51.986;4.458;2023-07-13T14:23:37;3.22;;;3.13;;
38487;SDS011;57384;51.986;4.458;2023-07-13T14:26:25;3.35;;;3.25;;
38487;SDS011;57384;51.986;4.458;2023-07-13T14:29:14;3.67;;;3.58;;
38487;SDS011;57384;51.986;4.458;2023-07-13T14:31:59;3.35;;;3.25;;
38487;SDS011;57384;51.986;4.458;2023-07-13T14:34:43;3.40;;;3.30;;
38487;SDS011;57384;51.986;4.458;2023-07-13T14:37:27;3.70;;;3.60;;
38487;SDS011;57384;51.986;4.458;2023-07-13T14:40:15;3.88;;;3.78;;
38487;SDS011;57384;51.986;4.458;2023-07-13T14:43:03;4.28;;;4.18;;
38487;SDS011;57384;51.986;4.458;2023-07-13T14:45:48;4.20;;;4.10;;
38487;SDS011;57384;51.986;4.458;2023-07-13T14:48:33;4.30;;;4.20;;
38487;SDS011;57384;51.986;4.458;2023-07-13T14:51:18;4.00;;;3.90;;
38487;SDS011;57384;51.986;4.458;2023-07-13T14:54:03;4.20;;;4.00;;
38487;SDS011;57384;51.986;4.458;2023-07-13T14:56:48;3.88;;;3.78;;
38487;SDS011;57384;51.986;4.458;2023-07-13T14:59:32;4.00;;;3.90;;
38487;SDS011;57384;51.986;4.458;2023-07-13T15:02:25;3.80;;;3.70;;
38487;SDS011;57384;51.986;4.458;2023-07-13T15:05:13;4.47;;;4.28;;
38487;SDS011;57384;51.986;4.458;2023-07-13T15:08:01;3.63;;;3.53;;
38487;SDS011;57384;51.986;4.458;2023-07-13T15:10:46;4.07;;;3.97;;
38487;SDS011;57384;51.986;4.458;2023-07-13T15:13:30;5.57;;;5.28;;
38487;SDS011;57384;51.986;4.458;2023-07-13T15:16:16;3.90;;;3.80;;
38487;SDS011;57384;51.986;4.458;2023-07-13T15:19:03;4.32;;;4.22;;
38487;SDS011;57384;51.986;4.458;2023-07-13T15:21:48;3.47;;;3.38;;
38487;SDS011;57384;51.986;4.458;2023-07-13T15:24:32;3.92;;;3.83;;
38487;SDS011;57384;51.986;4.458;2023-07-13T15:27:16;3.88;;;3.67;;
38487;SDS011;57384;51.986;4.458;2023-07-13T15:30:00;3.05;;;2.95;;
38487;SDS011;57384;51.986;4.458;2023-07-13T15:32:45;2.97;;;2.88;;
38487;SDS011;57384;51.986;4.458;2023-07-13T15:38:25;2.28;;;2.15;;
38487;SDS011;57384;51.986;4.458;2023-07-13T15:41:19;2.10;;;2.00;;
38487;SDS011;57384;51.986;4.458;2023-07-13T15:44:09;2.30;;;2.20;;
38487;SDS011;57384;51.986;4.458;2023-07-13T15:47:14;2.58;;;2.47;;
38487;SDS011;57384;51.986;4.458;2023-07-13T15:49:58;2.35;;;2.25;;
38487;SDS011;57384;51.986;4.458;2023-07-13T15:52:43;2.35;;;2.25;;
38487;SDS011;57384;51.986;4.458;2023-07-13T15:55:30;2.33;;;2.22;;
38487;SDS011;57384;51.986;4.458;2023-07-13T15:58:14;2.67;;;2.47;;
38487;SDS011;57384;51.986;4.458;2023-07-13T16:00:58;2.42;;;2.33;;
38487;SDS011;57384;51.986;4.458;2023-07-13T16:03:42;2.15;;;2.05;;
38487;SDS011;57384;51.986;4.458;2023-07-13T16:06:28;2.58;;;2.47;;
38487;SDS011;57384;51.986;4.458;2023-07-13T16:09:20;2.70;;;2.60;;
38487;SDS011;57384;51.986;4.458;2023-07-13T16:12:10;2.72;;;2.63;;
38487;SDS011;57384;51.986;4.458;2023-07-13T16:14:55;3.22;;;3.13;;
38487;SDS011;57384;51.986;4.458;2023-07-13T16:17:39;2.40;;;2.30;;
38487;SDS011;57384;51.986;4.458;2023-07-13T16:20:23;2.67;;;2.58;;
38487;SDS011;57384;51.986;4.458;2023-07-13T16:23:08;2.28;;;2.17;;
38487;SDS011;57384;51.986;4.458;2023-07-13T16:25:53;2.28;;;2.17;;
38487;SDS011;57384;51.986;4.458;2023-07-13T16:28:37;2.53;;;2.42;;
38487;SDS011;57384;51.986;4.458;2023-07-13T16:31:21;2.30;;;2.20;;
38487;SDS011;57384;51.986;4.458;2023-07-13T16:34:05;2.30;;;2.20;;
38487;SDS011;57384;51.986;4.458;2023-07-13T16:36:49;2.22;;;2.13;;
38487;SDS011;57384;51.986;4.458;2023-07-13T16:39:33;1.85;;;1.75;;
38487;SDS011;57384;51.986;4.458;2023-07-13T16:42:17;2.10;;;2.00;;
38487;SDS011;57384;51.986;4.458;2023-07-13T16:45:02;2.63;;;2.53;;
38487;SDS011;57384;51.986;4.458;2023-07-13T16:47:47;2.03;;;1.92;;
38487;SDS011;57384;51.986;4.458;2023-07-13T16:50:32;2.13;;;2.03;;
38487;SDS011;57384;51.986;4.458;2023-07-13T16:53:18;1.90;;;1.80;;
38487;SDS011;57384;51.986;4.458;2023-07-13T16:56:05;2.38;;;2.28;;
38487;SDS011;57384;51.986;4.458;2023-07-13T16:58:57;3.08;;;2.97;;
38487;SDS011;57384;51.986;4.458;2023-07-13T17:01:42;3.72;;;3.63;;
38487;SDS011;57384;51.986;4.458;2023-07-13T17:04:27;3.17;;;3.08;;
38487;SDS011;57384;51.986;4.458;2023-07-13T17:07:11;3.55;;;3.45;;
38487;SDS011;57384;51.986;4.458;2023-07-13T17:09:55;2.97;;;2.88;;
38487;SDS011;57384;51.986;4.458;2023-07-13T17:12:40;4.47;;;4.28;;
38487;SDS011;57384;51.986;4.458;2023-07-13T17:15:24;3.92;;;3.83;;
38487;SDS011;57384;51.986;4.458;2023-07-13T17:18:17;3.70;;;3.60;;
38487;SDS011;57384;51.986;4.458;2023-07-13T17:21:02;5.00;;;4.80;;
38487;SDS011;57384;51.986;4.458;2023-07-13T17:23:51;5.18;;;4.97;;
38487;SDS011;57384;51.986;4.458;2023-07-13T17:26:35;4.20;;;4.10;;
38487;SDS011;57384;51.986;4.458;2023-07-13T17:29:19;5.10;;;4.90;;
38487;SDS011;57384;51.986;4.458;2023-07-13T17:32:04;4.80;;;4.70;;
38487;SDS011;57384;51.986;4.458;2023-07-13T17:34:48;5.50;;;5.30;;
38487;SDS011;57384;51.986;4.458;2023-07-13T17:37:32;5.25;;;5.05;;
38487;SDS011;57384;51.986;4.458;2023-07-13T17:40:16;5.45;;;5.25;;
38487;SDS011;57384;51.986;4.458;2023-07-13T17:43:00;5.53;;;5.32;;
38487;SDS011;57384;51.986;4.458;2023-07-13T17:45:44;5.97;;;5.78;;
38487;SDS011;57384;51.986;4.458;2023-07-13T17:48:28;6.13;;;5.93;;
38487;SDS011;57384;51.986;4.458;2023-07-13T17:51:13;6.18;;;5.97;;
38487;SDS011;57384;51.986;4.458;2023-07-13T17:53:59;7.60;;;7.40;;
38487;SDS011;57384;51.986;4.458;2023-07-13T17:56:43;7.40;;;7.20;;
38487;SDS011;57384;51.986;4.458;2023-07-13T17:59:27;8.43;;;8.23;;
38487;SDS011;57384;51.986;4.458;2023-07-13T18:02:18;8.48;;;8.27;;
38487;SDS011;57384;51.986;4.458;2023-07-13T18:05:04;11.30;;;10.77;;
38487;SDS011;57384;51.986;4.458;2023-07-13T18:07:48;10.27;;;9.95;;
38487;SDS011;57384;51.986;4.458;2023-07-13T18:10:32;9.52;;;9.23;;
38487;SDS011;57384;51.986;4.458;2023-07-13T18:13:17;9.00;;;8.70;;
38487;SDS011;57384;51.986;4.458;2023-07-13T18:16:01;8.32;;;8.13;;
38487;SDS011;57384;51.986;4.458;2023-07-13T18:18:46;7.47;;;7.18;;
38487;SDS011;57384;51.986;4.458;2023-07-13T18:21:33;8.88;;;8.60;;
38487;SDS011;57384;51.986;4.458;2023-07-13T18:24:18;8.52;;;8.10;;
38487;SDS011;57384;51.986;4.458;2023-07-13T18:27:02;8.18;;;7.88;;
38487;SDS011;57384;51.986;4.458;2023-07-13T18:29:46;8.18;;;7.97;;
38487;SDS011;57384;51.986;4.458;2023-07-13T18:32:30;9.45;;;9.15;;
38487;SDS011;57384;51.986;4.458;2023-07-13T18:35:25;8.45;;;8.20;;
38487;SDS011;57384;51.986;4.458;2023-07-13T18:38:22;7.68;;;7.47;;
38487;SDS011;57384;51.986;4.458;2023-07-13T18:41:11;8.45;;;7.85;;
38487;SDS011;57384;51.986;4.458;2023-07-13T18:43:57;7.82;;;7.63;;
38487;SDS011;57384;51.986;4.458;2023-07-13T18:46:41;7.15;;;6.95;;
38487;SDS011;57384;51.986;4.458;2023-07-13T18:49:25;6.72;;;6.53;;
38487;SDS011;57384;51.986;4.458;2023-07-13T18:52:16;8.65;;;8.35;;
38487;SDS011;57384;51.986;4.458;2023-07-13T18:55:05;8.02;;;7.82;;
38487;SDS011;57384;51.986;4.458;2023-07-13T18:58:02;8.57;;;8.27;;
38487;SDS011;57384;51.986;4.458;2023-07-13T19:00:50;8.52;;;8.25;;
38487;SDS011;57384;51.986;4.458;2023-07-13T19:03:36;7.75;;;7.55;;
38487;SDS011;57384;51.986;4.458;2023-07-13T19:06:22;7.85;;;7.65;;
38487;SDS011;57384;51.986;4.458;2023-07-13T19:09:09;7.07;;;6.88;;
38487;SDS011;57384;51.986;4.458;2023-07-13T19:11:54;6.22;;;6.03;;
38487;SDS011;57384;51.986;4.458;2023-07-13T19:14:38;7.13;;;6.93;;
38487;SDS011;57384;51.986;4.458;2023-07-13T19:17:23;6.13;;;5.93;;
38487;SDS011;57384;51.986;4.458;2023-07-13T19:20:11;7.45;;;7.25;;
38487;SDS011;57384;51.986;4.458;2023-07-13T19:23:00;5.25;;;5.05;;
38487;SDS011;57384;51.986;4.458;2023-07-13T19:25:46;4.38;;;4.28;;
38487;SDS011;57384;51.986;4.458;2023-07-13T19:28:40;4.55;;;4.45;;
38487;SDS011;57384;51.986;4.458;2023-07-13T19:31:30;4.07;;;3.97;;
38487;SDS011;57384;51.986;4.458;2023-07-13T19:34:18;3.63;;;3.53;;
38487;SDS011;57384;51.986;4.458;2023-07-13T19:37:11;3.90;;;3.80;;
38487;SDS011;57384;51.986;4.458;2023-07-13T19:40:04;3.60;;;3.50;;
38487;SDS011;57384;51.986;4.458;2023-07-13T19:43:00;3.13;;;3.03;;
38487;SDS011;57384;51.986;4.458;2023-07-13T19:45:44;3.42;;;3.33;;
38487;SDS011;57384;51.986;4.458;2023-07-13T19:48:31;3.72;;;3.63;;
38487;SDS011;57384;51.986;4.458;2023-07-13T19:51:17;3.22;;;3.13;;
38487;SDS011;57384;51.986;4.458;2023-07-13T19:54:10;3.45;;;3.35;;
38487;SDS011;57384;51.986;4.458;2023-07-13T19:57:08;2.90;;;2.80;;
38487;SDS011;57384;51.986;4.458;2023-07-13T19:59:59;3.05;;;2.95;;
38487;SDS011;57384;51.986;4.458;2023-07-13T20:02:44;3.45;;;3.25;;
38487;SDS011;57384;51.986;4.458;2023-07-13T20:05:29;3.20;;;3.10;;
38487;SDS011;57384;51.986;4.458;2023-07-13T20:08:19;3.03;;;2.92;;